Time;durP1;ratioP1;P1;durP2;ratioP2;P2;SDS_P1;SDS_P2;PMS_P1;PMS_P2;Temp;Humidity;BMP_temperature;BMP_pressure;BME280_temperature;BME280_humidity;BME280_pressure;Samples;Min_cycle;Max_cycle;Signal;HPM_P1;HPM_P2
2021/03/09 00:00:12;;;;;;;8.73;7.90;;;6.10;30.50;;;;;;5050197;28;20421;-65
2021/03/09 00:02:37;;;;;;;9.53;8.63;;;6.10;30.20;;;;;;5050442;28;20183;-64
2021/03/09 00:05:04;;;;;;;11.33;8.77;;;6.00;30.90;;;;;;5050025;28;20474;-64
2021/03/09 00:07:30;;;;;;;10.17;9.17;;;6.40;30.20;;;;;;5050128;28;20172;-62
2021/03/09 00:09:55;;;;;;;11.77;9.80;;;6.50;29.80;;;;;;5050493;28;20513;-64
2021/03/09 00:12:21;;;;;;;9.20;8.40;;;6.50;29.70;;;;;;5048758;28;20203;-64
2021/03/09 00:14:47;;;;;;;9.67;8.43;;;6.30;29.60;;;;;;5050380;28;20175;-63
2021/03/09 00:17:12;;;;;;;10.13;8.83;;;6.00;30.70;;;;;;5050157;28;20610;-63
2021/03/09 00:19:38;;;;;;;10.90;8.73;;;6.40;29.80;;;;;;5049967;28;20605;-64
2021/03/09 00:22:03;;;;;;;9.30;8.40;;;6.50;29.80;;;;;;5049975;28;20948;-65
2021/03/09 00:24:29;;;;;;;9.27;8.37;;;6.60;29.40;;;;;;5050091;28;20207;-64
2021/03/09 00:26:54;;;;;;;10.00;9.00;;;6.60;29.30;;;;;;5049564;28;20176;-64
2021/03/09 00:29:20;;;;;;;11.40;10.30;;;6.50;29.70;;;;;;5049856;28;20174;-64
2021/03/09 00:31:45;;;;;;;11.73;9.73;;;6.50;29.70;;;;;;5049847;28;20243;-64
2021/03/09 00:34:11;;;;;;;10.33;9.30;;;6.60;29.80;;;;;;5049632;28;20270;-64
2021/03/09 00:36:36;;;;;;;8.93;8.13;;;6.60;29.30;;;;;;5049847;28;20639;-64
2021/03/09 00:39:03;;;;;;;11.50;8.30;;;6.60;29.30;;;;;;5053382;28;20237;-65
2021/03/09 00:41:28;;;;;;;10.77;9.67;;;6.60;29.40;;;;;;5053207;28;20248;-64
2021/03/09 00:43:54;;;;;;;10.43;9.33;;;6.60;29.30;;;;;;5053446;28;20985;-63
2021/03/09 00:46:19;;;;;;;9.40;8.30;;;6.70;29.30;;;;;;5053578;28;20247;-64
2021/03/09 00:48:45;;;;;;;9.30;8.40;;;6.50;29.30;;;;;;5053005;28;20172;-64
2021/03/09 00:51:10;;;;;;;10.97;9.30;;;6.50;29.70;;;;;;5053278;28;20592;-64
2021/03/09 00:53:36;;;;;;;10.10;9.10;;;6.40;29.70;;;;;;5053414;28;20674;-64
2021/03/09 00:56:02;;;;;;;10.60;9.10;;;6.10;29.50;;;;;;5052152;28;20189;-66
2021/03/09 00:58:28;;;;;;;11.03;9.93;;;5.60;31.20;;;;;;5053195;28;20183;-64
2021/03/09 01:00:53;;;;;;;10.37;9.47;;;5.40;32.00;;;;;;5053214;28;20466;-63
2021/03/09 01:03:19;;;;;;;10.50;9.40;;;5.20;32.60;;;;;;5052968;28;20639;-64
2021/03/09 01:05:44;;;;;;;9.20;8.20;;;5.30;32.70;;;;;;5053096;28;20199;-65
2021/03/09 01:08:10;;;;;;;10.57;9.57;;;5.30;32.40;;;;;;5052954;28;20183;-65
2021/03/09 01:10:37;;;;;;;10.80;9.70;;;5.30;32.70;;;;;;5053217;28;20231;-65
2021/03/09 01:13:03;;;;;;;11.43;10.23;;;5.30;32.80;;;;;;5052959;28;20600;-66
2021/03/09 01:15:28;;;;;;;9.87;8.87;;;5.20;32.90;;;;;;5053122;28;20414;-65
2021/03/09 01:17:54;;;;;;;10.67;9.57;;;5.10;33.50;;;;;;5052732;28;20414;-64
2021/03/09 01:20:20;;;;;;;9.57;8.50;;;5.40;32.90;;;;;;5052505;28;20184;-64
2021/03/09 01:22:45;;;;;;;10.70;9.60;;;5.80;31.80;;;;;;5053009;28;20579;-66
2021/03/09 01:25:11;;;;;;;10.03;9.03;;;5.70;31.70;;;;;;5052720;28;20464;-64
2021/03/09 01:27:38;;;;;;;11.13;9.60;;;5.60;31.40;;;;;;5052411;28;20201;-64
2021/03/09 01:30:09;;;;;;;11.87;9.93;;;5.50;32.30;;;;;;5051425;28;20421;-63
2021/03/09 01:32:36;;;;;;;10.47;9.33;;;5.70;31.80;;;;;;5052409;28;20435;-64
2021/03/09 01:35:02;;;;;;;9.60;8.60;;;5.60;32.00;;;;;;5052183;28;20420;-64
2021/03/09 01:37:28;;;;;;;10.53;8.80;;;5.60;32.10;;;;;;5052265;28;20913;-62
2021/03/09 01:39:54;;;;;;;10.33;9.33;;;5.60;31.70;;;;;;5052349;28;20434;-64
2021/03/09 01:42:20;;;;;;;9.50;8.70;;;5.30;32.10;;;;;;5052230;28;20686;-63
2021/03/09 01:44:46;;;;;;;11.00;10.00;;;5.20;33.00;;;;;;5052207;28;20231;-63
2021/03/09 01:47:11;;;;;;;10.43;9.43;;;5.50;32.60;;;;;;5052070;28;20468;-64
2021/03/09 01:49:39;;;;;;;14.27;9.87;;;5.80;31.60;;;;;;5051889;28;20164;-64
2021/03/09 01:52:10;;;;;;;11.17;9.43;;;5.90;31.20;;;;;;5052125;28;20689;-64
2021/03/09 01:54:38;;;;;;;11.27;9.53;;;5.60;31.40;;;;;;5052324;28;20964;-64
2021/03/09 01:57:04;;;;;;;9.80;8.80;;;5.50;32.60;;;;;;5051940;28;20438;-65
2021/03/09 01:59:31;;;;;;;10.30;9.33;;;5.60;31.90;;;;;;5052112;28;20496;-64
2021/03/09 02:01:57;;;;;;;12.00;9.90;;;5.10;32.90;;;;;;5051781;28;20437;-64
2021/03/09 02:04:23;;;;;;;11.17;9.80;;;5.10;33.20;;;;;;5051733;28;20995;-64
2021/03/09 02:06:49;;;;;;;11.13;8.97;;;4.90;33.80;;;;;;5051866;28;20414;-64
2021/03/09 02:09:15;;;;;;;9.57;8.77;;;5.00;34.00;;;;;;5051720;28;20407;-64
2021/03/09 02:11:52;;;;;;;11.17;10.07;;;5.20;33.00;;;;;;5063532;28;20777;-64
2021/03/09 02:14:40;;;;;;;9.43;8.33;;;5.10;33.20;;;;;;5051714;28;20415;-63
2021/03/09 02:17:21;;;;;;;10.93;9.83;;;5.20;33.10;;;;;;5052166;28;20410;-64
2021/03/09 02:20:21;;;;;;;9.33;8.50;;;5.30;32.80;;;;;;5071796;28;20489;-64
2021/03/09 02:23:49;;;;;;;11.10;9.27;;;5.40;32.60;;;;;;5071526;28;20409;-63
2021/03/09 02:26:37;;;;;;;10.60;9.60;;;5.10;32.70;;;;;;5056875;28;20495;-63
2021/03/09 02:29:27;;;;;;;15.10;8.77;;;5.10;33.80;;;;;;5056417;28;20501;-63
2021/03/09 02:31:55;;;;;;;8.93;8.03;;;5.40;32.20;;;;;;5051585;28;20429;-62
2021/03/09 02:34:27;;;;;;;10.47;9.50;;;5.30;32.80;;;;;;5051232;28;20924;-64
2021/03/09 02:36:54;;;;;;;15.97;10.30;;;5.20;32.50;;;;;;5051646;28;20406;-63
2021/03/09 02:39:21;;;;;;;10.10;9.10;;;5.20;33.50;;;;;;5051248;28;20454;-63
2021/03/09 02:41:48;;;;;;;10.70;9.60;;;5.10;33.10;;;;;;5051144;28;20435;-64
2021/03/09 02:44:19;;;;;;;11.60;9.30;;;5.10;33.30;;;;;;5051441;28;20895;-63
2021/03/09 02:46:47;;;;;;;11.07;9.97;;;4.70;34.20;;;;;;5051641;28;20434;-64
2021/03/09 02:49:14;;;;;;;10.40;9.37;;;4.70;34.50;;;;;;5050887;28;20406;-64
2021/03/09 02:51:43;;;;;;;10.07;9.07;;;4.90;34.30;;;;;;5051268;28;20499;-64
2021/03/09 02:54:10;;;;;;;13.60;11.10;;;5.10;33.40;;;;;;5051213;28;20414;-64
2021/03/09 02:56:39;;;;;;;10.23;9.23;;;5.30;33.20;;;;;;5050912;28;20996;-62
2021/03/09 02:59:13;;;;;;;10.03;8.17;;;5.50;32.20;;;;;;5050854;28;20410;-63
2021/03/09 03:01:42;;;;;;;11.83;9.77;;;5.60;32.00;;;;;;5050678;28;20532;-63
2021/03/09 03:04:10;;;;;;;11.60;9.70;;;5.70;31.70;;;;;;5050596;28;20519;-64
2021/03/09 03:06:37;;;;;;;11.33;8.97;;;5.60;31.60;;;;;;5050895;28;20418;-62
2021/03/09 03:09:04;;;;;;;9.50;8.60;;;5.60;31.40;;;;;;5050771;28;20778;-63
2021/03/09 03:11:31;;;;;;;12.13;10.03;;;5.70;31.40;;;;;;5049365;28;20429;-63
2021/03/09 03:14:00;;;;;;;10.77;9.17;;;5.70;31.40;;;;;;5050721;28;20468;-63
2021/03/09 03:16:27;;;;;;;10.20;9.20;;;5.50;31.50;;;;;;5049433;28;20431;-64
2021/03/09 03:18:54;;;;;;;11.30;10.10;;;5.60;31.50;;;;;;5050072;28;20418;-64
2021/03/09 03:21:21;;;;;;;10.60;9.47;;;5.40;31.70;;;;;;5050655;28;20537;-63
2021/03/09 03:23:47;;;;;;;10.07;9.07;;;5.40;32.20;;;;;;5050435;28;20462;-64
2021/03/09 03:26:14;;;;;;;9.97;8.97;;;5.50;31.80;;;;;;5050360;28;20492;-64
2021/03/09 03:28:45;;;;;;;12.80;9.73;;;5.60;31.70;;;;;;5050405;28;20414;-64
2021/03/09 03:31:11;;;;;;;10.20;8.90;;;5.70;31.40;;;;;;5050424;28;20430;-64
2021/03/09 03:33:37;;;;;;;9.90;8.90;;;5.50;31.80;;;;;;5050199;28;20424;-63
2021/03/09 03:36:03;;;;;;;11.33;8.83;;;5.50;32.10;;;;;;5050457;28;20410;-64
2021/03/09 03:38:40;;;;;;;13.13;10.40;;;5.60;31.70;;;;;;5050131;28;20426;-63
2021/03/09 03:41:07;;;;;;;9.53;8.63;;;5.40;32.10;;;;;;5050170;28;20434;-64
2021/03/09 03:43:33;;;;;;;10.87;9.67;;;5.20;32.50;;;;;;5050442;28;20418;-62
2021/03/09 03:45:59;;;;;;;10.10;9.07;;;5.30;32.60;;;;;;5050228;28;20422;-63
2021/03/09 03:48:26;;;;;;;10.60;9.60;;;5.50;32.80;;;;;;5049976;28;20407;-65
2021/03/09 03:50:54;;;;;;;11.20;8.50;;;5.60;31.80;;;;;;5050385;28;20192;-64
2021/03/09 03:53:28;;;;;;;9.80;9.00;;;5.60;31.70;;;;;;5050540;28;20765;-64
2021/03/09 03:56:20;;;;;;;11.03;9.93;;;5.30;31.70;;;;;;5050318;28;20468;-62
2021/03/09 03:58:50;;;;;;;10.00;9.00;;;5.00;33.20;;;;;;5050352;28;20926;-62
2021/03/09 04:01:19;;;;;;;9.67;8.80;;;5.10;33.00;;;;;;5050110;28;20520;-64
2021/03/09 04:03:49;;;;;;;13.90;9.20;;;4.70;33.80;;;;;;5050406;28;20458;-65
2021/03/09 04:06:17;;;;;;;12.47;9.83;;;4.80;34.30;;;;;;5050301;28;20441;-64
2021/03/09 04:08:43;;;;;;;9.80;8.83;;;5.10;33.50;;;;;;5049739;28;20434;-64
2021/03/09 04:11:09;;;;;;;11.93;10.73;;;5.10;33.30;;;;;;5050112;28;20434;-64
2021/03/09 04:13:40;;;;;;;10.17;9.27;;;5.10;33.40;;;;;;5053524;28;20412;-64
2021/03/09 04:16:06;;;;;;;9.47;8.67;;;5.00;33.30;;;;;;5053668;28;20514;-63
2021/03/09 04:18:33;;;;;;;11.90;10.30;;;5.20;33.00;;;;;;5053841;28;20493;-64
2021/03/09 04:20:59;;;;;;;10.70;9.60;;;5.30;33.10;;;;;;5053797;28;20528;-63
2021/03/09 04:23:25;;;;;;;11.10;10.10;;;5.30;33.10;;;;;;5053449;28;20505;-64
2021/03/09 04:25:53;;;;;;;10.80;9.37;;;5.30;32.40;;;;;;5053921;28;20427;-64
2021/03/09 04:28:19;;;;;;;11.03;9.40;;;5.30;32.60;;;;;;5053596;28;20421;-64
2021/03/09 04:30:45;;;;;;;10.37;9.30;;;5.30;32.80;;;;;;5053434;28;20465;-64
2021/03/09 04:33:11;;;;;;;11.13;10.03;;;5.40;32.70;;;;;;5053665;28;20410;-63
2021/03/09 04:35:37;;;;;;;11.67;10.47;;;5.50;32.10;;;;;;5053601;28;20419;-64
2021/03/09 04:38:04;;;;;;;10.83;9.83;;;5.30;32.00;;;;;;5052893;28;20248;-64
2021/03/09 04:40:32;;;;;;;11.90;10.20;;;5.00;32.80;;;;;;5053622;28;20461;-64
2021/03/09 04:42:57;;;;;;;11.40;10.40;;;4.80;33.70;;;;;;5053421;28;20414;-65
2021/03/09 04:45:23;;;;;;;10.50;9.50;;;5.00;33.40;;;;;;5053229;28;21005;-64
2021/03/09 04:47:49;;;;;;;14.70;11.60;;;5.00;33.30;;;;;;5053229;28;20176;-64
2021/03/09 04:50:16;;;;;;;11.10;10.10;;;5.20;33.10;;;;;;5053436;28;20256;-64
2021/03/09 04:52:45;;;;;;;10.60;9.70;;;5.30;32.60;;;;;;5051844;28;20951;-64
2021/03/09 04:55:14;;;;;;;11.17;9.60;;;5.30;32.40;;;;;;5053336;28;20421;-64
2021/03/09 04:57:43;;;;;;;10.80;9.70;;;5.10;32.70;;;;;;5053079;28;20493;-64
2021/03/09 05:00:16;;;;;;;12.40;10.63;;;5.30;32.70;;;;;;5053223;28;20422;-64
2021/03/09 05:02:44;;;;;;;12.20;9.80;;;5.30;32.80;;;;;;5053379;28;20500;-64
2021/03/09 05:05:11;;;;;;;13.07;10.03;;;5.30;32.40;;;;;;5051981;28;20964;-64
2021/03/09 05:07:37;;;;;;;12.03;10.93;;;5.30;32.80;;;;;;5052920;28;20421;-64
2021/03/09 05:10:04;;;;;;;11.80;10.70;;;5.30;32.20;;;;;;5050295;28;20410;-64
2021/03/09 05:12:30;;;;;;;12.73;10.60;;;5.40;32.20;;;;;;5052470;28;20548;-63
2021/03/09 05:14:55;;;;;;;12.10;10.80;;;5.50;31.70;;;;;;5051627;28;20422;-63
2021/03/09 05:17:21;;;;;;;11.70;10.60;;;5.50;31.90;;;;;;5052613;28;20833;-64
2021/03/09 05:19:46;;;;;;;13.07;11.57;;;5.60;31.50;;;;;;5052738;28;20184;-64
2021/03/09 05:22:12;;;;;;;11.87;10.77;;;5.50;31.60;;;;;;5052740;28;20744;-63
2021/03/09 05:24:37;;;;;;;11.13;10.07;;;5.40;32.10;;;;;;5051924;28;20581;-63
2021/03/09 05:27:04;;;;;;;11.77;9.90;;;5.20;32.40;;;;;;5052580;28;20184;-64
2021/03/09 05:29:30;;;;;;;10.57;9.47;;;5.00;32.80;;;;;;5052648;28;20175;-64
2021/03/09 05:31:56;;;;;;;10.80;9.80;;;4.90;33.80;;;;;;5052291;28;20430;-63
2021/03/09 05:34:21;;;;;;;10.90;9.73;;;4.90;33.20;;;;;;5052479;28;20789;-63
2021/03/09 05:36:47;;;;;;;11.23;10.20;;;4.80;33.30;;;;;;5051409;28;20192;-64
2021/03/09 05:39:12;;;;;;;11.97;9.63;;;4.80;33.80;;;;;;5059644;28;20208;-63
2021/03/09 05:41:38;;;;;;;12.07;8.73;;;4.90;33.50;;;;;;5051402;28;20196;-65
2021/03/09 05:44:05;;;;;;;11.20;10.10;;;5.00;33.40;;;;;;5050807;28;20718;-66
2021/03/09 05:46:31;;;;;;;10.70;9.60;;;5.10;33.10;;;;;;5058662;28;20184;-65
2021/03/09 05:48:57;;;;;;;11.60;10.47;;;5.20;32.80;;;;;;5071933;28;20904;-66
2021/03/09 05:51:23;;;;;;;14.97;10.00;;;5.10;32.20;;;;;;5061787;28;20257;-66
2021/03/09 05:53:49;;;;;;;10.47;9.40;;;5.10;32.40;;;;;;5052151;28;20480;-69
2021/03/09 05:56:14;;;;;;;11.27;10.07;;;5.00;32.40;;;;;;5052164;28;20818;-66
2021/03/09 05:58:41;;;;;;;14.70;10.60;;;5.20;32.60;;;;;;5051971;28;20259;-66
2021/03/09 06:01:06;;;;;;;10.80;9.80;;;5.00;32.70;;;;;;5057212;28;20207;-66
2021/03/09 06:03:32;;;;;;;13.47;10.03;;;4.90;33.00;;;;;;5055953;28;20438;-66
2021/03/09 06:05:58;;;;;;;15.03;11.10;;;5.00;33.40;;;;;;5057318;28;20265;-67
2021/03/09 06:08:23;;;;;;;14.57;10.73;;;5.10;33.50;;;;;;5065917;28;20188;-66
2021/03/09 06:10:49;;;;;;;13.50;10.27;;;5.10;32.50;;;;;;5057448;28;20571;-67
2021/03/09 06:13:35;;;;;;;12.10;10.80;;;5.10;32.80;;;;;;5072016;28;20175;-67
2021/03/09 06:16:01;;;;;;;12.70;9.97;;;5.10;32.90;;;;;;5060890;28;20445;-66
2021/03/09 06:18:26;;;;;;;12.80;10.60;;;5.20;32.20;;;;;;5071463;28;20939;-67
2021/03/09 06:21:12;;;;;;;11.40;9.90;;;5.30;32.00;;;;;;5066568;28;21095;-67
2021/03/09 06:23:38;;;;;;;10.80;9.60;;;5.20;32.20;;;;;;5051293;28;20210;-66
2021/03/09 06:26:24;;;;;;;11.20;10.20;;;5.30;32.40;;;;;;5051506;28;20489;-67
2021/03/09 06:29:14;;;;;;;12.80;9.70;;;5.20;32.50;;;;;;5051140;28;20411;-66
2021/03/09 06:31:59;;;;;;;10.90;9.10;;;5.30;32.00;;;;;;5051056;28;20436;-66
2021/03/09 06:34:30;;;;;;;13.70;10.77;;;5.40;32.80;;;;;;5050882;28;20414;-66
2021/03/09 06:37:09;;;;;;;11.83;10.20;;;5.50;32.20;;;;;;5050642;28;20406;-67
2021/03/09 06:39:49;;;;;;;12.53;10.90;;;5.50;32.20;;;;;;5051299;28;20524;-66
2021/03/09 06:42:18;;;;;;;11.57;10.40;;;5.50;32.80;;;;;;5051273;28;20469;-66
2021/03/09 06:44:49;;;;;;;11.10;10.10;;;5.40;32.30;;;;;;5050931;28;20465;-66
2021/03/09 06:47:14;;;;;;;10.90;8.80;;;5.30;32.90;;;;;;5053434;28;20505;-68
2021/03/09 06:49:51;;;;;;;12.27;9.47;;;6.70;60.50;;;;;;5062499;28;20436;-67
2021/03/09 06:52:19;;;;;;;8.93;8.13;;;7.40;51.90;;;;;;5059348;28;20249;-68
2021/03/09 06:54:47;;;;;;;13.20;10.83;;;10.10;53.00;;;;;;5051267;28;20410;-70
2021/03/09 06:57:14;;;;;;;13.77;11.53;;;10.00;38.50;;;;;;5057405;28;20414;-67
2021/03/09 06:59:45;;;;;;;16.20;12.43;;;7.80;28.60;;;;;;5062326;28;20423;-65
2021/03/09 07:02:12;;;;;;;11.83;10.73;;;7.40;30.30;;;;;;5049867;28;20520;-65
2021/03/09 07:04:52;;;;;;;12.60;11.20;;;6.80;29.10;;;;;;5050915;28;20464;-65
2021/03/09 07:07:29;;;;;;;12.90;11.63;;;6.40;29.70;;;;;;5050581;28;20917;-65
2021/03/09 07:09:57;;;;;;;12.20;10.97;;;6.10;30.80;;;;;;5050905;28;20428;-66
2021/03/09 07:12:23;;;;;;;12.93;11.37;;;6.10;30.40;;;;;;5050668;28;20441;-65
2021/03/09 07:14:50;;;;;;;14.63;12.53;;;5.80;30.80;;;;;;5050648;28;20476;-65
2021/03/09 07:17:19;;;;;;;14.43;11.37;;;5.60;31.70;;;;;;5050538;28;20443;-65
2021/03/09 07:19:45;;;;;;;13.50;12.10;;;5.60;32.30;;;;;;5050624;28;20420;-67
2021/03/09 07:22:12;;;;;;;15.43;12.70;;;5.50;32.20;;;;;;5049144;28;20438;-66
2021/03/09 07:24:49;;;;;;;13.40;11.80;;;5.40;32.80;;;;;;5050443;28;20670;-66
2021/03/09 07:27:24;;;;;;;13.63;12.33;;;5.40;32.90;;;;;;5051554;28;20440;-66
2021/03/09 07:29:55;;;;;;;16.07;13.33;;;5.50;32.50;;;;;;5050244;28;20532;-66
2021/03/09 07:32:23;;;;;;;19.63;12.33;;;5.50;32.60;;;;;;5050377;28;20423;-65
2021/03/09 07:34:49;;;;;;;13.90;12.17;;;5.50;33.00;;;;;;5049608;28;20921;-64
2021/03/09 07:37:17;;;;;;;17.50;14.00;;;5.50;33.20;;;;;;5049477;28;21225;-65
2021/03/09 07:39:44;;;;;;;16.07;12.03;;;5.50;33.10;;;;;;5050248;28;20429;-66
2021/03/09 07:42:10;;;;;;;13.90;12.20;;;5.70;32.70;;;;;;5050237;28;20430;-66
2021/03/09 07:44:38;;;;;;;13.70;11.83;;;5.80;32.40;;;;;;5060879;28;20460;-69
2021/03/09 07:47:09;;;;;;;15.43;13.10;;;5.70;32.30;;;;;;5065089;28;20433;-67
2021/03/09 07:49:39;;;;;;;14.10;12.70;;;5.70;32.60;;;;;;5064907;28;20435;-65
2021/03/09 07:52:13;;;;;;;14.27;12.77;;;5.50;32.90;;;;;;5064032;28;20462;-68
2021/03/09 07:54:59;;;;;;;18.17;13.67;;;5.30;33.70;;;;;;5056853;28;20963;-67
2021/03/09 07:57:25;;;;;;;21.67;14.53;;;5.30;34.00;;;;;;5071537;28;20432;-65
2021/03/09 07:59:59;;;;;;;16.20;13.40;;;5.60;34.00;;;;;;5057543;28;20453;-64
2021/03/09 08:02:40;;;;;;;16.90;12.73;;;5.70;33.50;;;;;;5073873;28;20451;-66
2021/03/09 08:05:09;;;;;;;15.93;14.40;;;6.00;32.30;;;;;;5075485;28;20467;-69
2021/03/09 08:08:04;;;;;;;15.27;13.27;;;5.90;32.90;;;;;;5076223;28;20409;-67
2021/03/09 08:10:29;;;;;;;16.67;13.90;;;5.90;32.60;;;;;;5076557;28;20404;-66
2021/03/09 08:13:07;;;;;;;16.10;14.60;;;6.00;32.60;;;;;;5068237;28;20448;-69
2021/03/09 08:15:40;;;;;;;16.43;13.80;;;6.20;32.30;;;;;;5059653;28;20212;-68
2021/03/09 08:18:23;;;;;;;14.40;12.87;;;6.30;32.70;;;;;;5068258;28;20848;-69
2021/03/09 08:20:54;;;;;;;18.70;14.63;;;5.90;31.70;;;;;;5058906;28;20585;-70
2021/03/09 08:23:31;;;;;;;15.37;13.77;;;6.10;33.10;;;;;;5062721;28;20471;-70
2021/03/09 08:29:28;;;;;;;21.10;14.07;;;6.30;32.80;;;;;;5067521;28;20387;-66
2021/03/09 08:32:26;;;;;;;17.87;14.67;;;6.40;32.30;;;;;;5076283;28;20435;-68
2021/03/09 08:35:13;;;;;;;16.20;14.03;;;6.40;31.90;;;;;;5075636;28;20495;-65
2021/03/09 08:37:50;;;;;;;16.00;14.50;;;6.40;31.60;;;;;;5068772;28;20538;-67
2021/03/09 08:40:18;;;;;;;18.83;15.00;;;6.60;31.60;;;;;;5056311;28;20796;-70
2021/03/09 08:43:01;;;;;;;19.33;16.27;;;6.30;31.90;;;;;;5056062;28;20425;-68
2021/03/09 08:45:38;;;;;;;19.20;16.10;;;6.20;32.50;;;;;;5074210;28;20559;-67
2021/03/09 08:48:05;;;;;;;19.40;15.90;;;6.20;32.30;;;;;;5076007;28;20858;-68
2021/03/09 08:50:57;;;;;;;16.93;14.93;;;6.30;33.10;;;;;;5075997;28;20439;-70
2021/03/09 08:53:32;;;;;;;17.60;15.40;;;6.50;31.90;;;;;;5062074;28;20442;-68
2021/03/09 08:56:03;;;;;;;15.93;14.23;;;6.60;32.10;;;;;;5070405;28;20412;-69
2021/03/09 08:58:29;;;;;;;20.87;17.00;;;6.70;31.50;;;;;;5054496;28;20827;-68
2021/03/09 09:00:56;;;;;;;20.47;17.13;;;6.80;31.70;;;;;;5053035;28;20862;-70
2021/03/09 09:03:35;;;;;;;22.97;16.37;;;6.90;31.60;;;;;;5053123;28;20912;-67
2021/03/09 09:06:01;;;;;;;17.87;15.13;;;6.80;30.90;;;;;;5052785;28;20422;-67
2021/03/09 09:08:28;;;;;;;27.00;16.60;;;6.90;31.20;;;;;;5052958;28;20502;-67
2021/03/09 09:10:53;;;;;;;18.73;16.00;;;7.00;31.40;;;;;;5052678;28;20434;-66
2021/03/09 09:13:33;;;;;;;18.07;16.00;;;7.10;30.90;;;;;;5052756;28;20418;-69
2021/03/09 09:15:59;;;;;;;20.30;17.77;;;7.30;30.20;;;;;;5052924;28;20548;-70
2021/03/09 09:18:25;;;;;;;21.40;16.67;;;7.30;31.50;;;;;;5059232;28;20428;-69
2021/03/09 09:20:52;;;;;;;18.70;16.50;;;7.00;30.70;;;;;;5071174;28;20441;-70
2021/03/09 09:23:23;;;;;;;19.03;17.27;;;7.00;33.70;;;;;;5072340;28;20172;-69
2021/03/09 09:25:50;;;;;;;18.20;16.40;;;7.10;30.70;;;;;;5066994;28;20461;-69
2021/03/09 09:28:42;;;;;;;20.13;16.23;;;7.10;31.30;;;;;;5071690;28;20520;-68
2021/03/09 09:31:19;;;;;;;20.17;18.10;;;7.20;30.40;;;;;;5070435;28;20459;-68
2021/03/09 09:33:54;;;;;;;23.60;19.73;;;7.20;30.80;;;;;;5052471;28;20506;-69
2021/03/09 09:36:21;;;;;;;19.97;16.83;;;7.40;30.30;;;;;;5052101;28;20409;-68
2021/03/09 09:38:54;;;;;;;18.50;16.50;;;7.10;30.80;;;;;;5052158;28;20932;-68
2021/03/09 09:41:21;;;;;;;20.07;16.53;;;7.20;31.10;;;;;;5052058;28;20522;-68
2021/03/09 09:43:47;;;;;;;22.43;17.20;;;7.30;30.50;;;;;;5052195;28;20413;-68
2021/03/09 09:46:45;;;;;;;21.63;18.80;;;7.50;30.40;;;;;;5051907;28;20882;-69
2021/03/09 09:49:12;;;;;;;54.30;47.60;;;7.70;30.50;;;;;;5040080;28;20187;-70
2021/03/09 09:51:38;;;;;;;26.70;23.90;;;7.70;30.00;;;;;;5052174;28;20919;-68
2021/03/09 09:54:10;;;;;;;22.20;19.20;;;7.80;30.50;;;;;;5051902;28;20418;-67
2021/03/09 09:56:36;;;;;;;18.43;16.47;;;7.70;29.90;;;;;;5054553;28;20417;-71
2021/03/09 09:59:02;;;;;;;16.53;14.93;;;7.70;30.00;;;;;;5071618;28;20420;-72
2021/03/09 10:01:35;;;;;;;19.67;17.20;;;7.80;30.60;;;;;;5070599;28;20203;-70
2021/03/09 10:04:06;;;;;;;17.50;15.73;;;7.90;29.80;;;;;;5070374;28;20197;-68
2021/03/09 10:06:43;;;;;;;21.17;17.00;;;8.10;29.40;;;;;;5071788;28;20913;-67
2021/03/09 10:09:18;;;;;;;17.03;15.37;;;8.10;29.00;;;;;;5070758;28;20401;-70
2021/03/09 10:11:52;;;;;;;19.40;16.57;;;8.30;28.70;;;;;;5066639;28;20475;-68
2021/03/09 10:14:20;;;;;;;19.70;17.60;;;8.10;28.60;;;;;;5066936;28;20413;-69
2021/03/09 10:16:46;;;;;;;20.70;17.30;;;7.80;29.20;;;;;;5056461;28;20418;-68
2021/03/09 10:19:20;;;;;;;18.33;16.20;;;8.00;30.60;;;;;;5061399;28;20414;-72
2021/03/09 10:21:54;;;;;;;20.10;15.97;;;8.30;29.50;;;;;;5051640;28;20426;-71
2021/03/09 10:24:29;;;;;;;18.97;16.27;;;8.40;28.40;;;;;;5051797;28;20947;-72
2021/03/09 10:26:55;;;;;;;21.63;17.60;;;8.50;28.40;;;;;;5051791;28;20402;-70
2021/03/09 10:29:23;;;;;;;45.00;33.33;;;8.40;28.20;;;;;;5061653;28;20425;-69
2021/03/09 10:31:54;;;;;;;20.93;17.33;;;8.40;28.30;;;;;;5057258;28;20431;-66
2021/03/09 10:34:36;;;;;;;20.90;15.73;;;8.40;28.10;;;;;;5049952;28;20794;-66
2021/03/09 10:37:02;;;;;;;17.43;15.63;;;8.30;28.20;;;;;;5051423;28;20766;-64
2021/03/09 10:39:30;;;;;;;17.13;15.33;;;8.30;28.00;;;;;;5051311;28;20434;-69
2021/03/09 10:41:57;;;;;;;19.43;17.43;;;8.40;28.90;;;;;;5062321;28;20445;-69
2021/03/09 10:44:29;;;;;;;20.43;14.60;;;8.50;28.20;;;;;;5054109;28;20990;-70
2021/03/09 10:46:55;;;;;;;16.97;15.17;;;8.70;27.60;;;;;;5051109;28;20406;-71
2021/03/09 10:49:21;;;;;;;19.83;17.80;;;8.70;27.80;;;;;;5050872;28;20411;-68
2021/03/09 10:51:46;;;;;;;17.07;15.30;;;8.80;27.30;;;;;;5053367;28;20446;-68
2021/03/09 10:54:12;;;;;;;17.33;15.63;;;9.00;26.40;;;;;;5060269;28;20241;-66
2021/03/09 10:56:39;;;;;;;17.90;16.10;;;9.00;26.80;;;;;;5061483;28;20557;-65
2021/03/09 10:59:04;;;;;;;20.50;14.80;;;9.10;27.10;;;;;;5063116;28;20172;-67
2021/03/09 11:01:31;;;;;;;15.73;14.13;;;9.20;27.00;;;;;;5067026;28;20449;-67
2021/03/09 11:03:56;;;;;;;16.77;14.97;;;9.00;25.90;;;;;;5070460;28;20207;-67
2021/03/09 11:06:22;;;;;;;15.40;13.90;;;9.00;26.00;;;;;;5070811;28;20409;-67
2021/03/09 11:08:47;;;;;;;17.90;14.63;;;9.10;25.90;;;;;;5070593;28;20244;-66
2021/03/09 11:11:13;;;;;;;15.97;14.40;;;9.10;26.00;;;;;;5070338;28;20202;-66
2021/03/09 11:13:38;;;;;;;15.87;13.80;;;9.10;25.60;;;;;;5070600;28;20578;-66
2021/03/09 11:16:04;;;;;;;14.37;12.97;;;9.20;25.50;;;;;;5070544;28;20197;-67
2021/03/09 11:18:29;;;;;;;15.73;14.17;;;9.20;25.40;;;;;;5070153;28;20167;-66
2021/03/09 11:20:55;;;;;;;14.17;12.90;;;9.20;25.20;;;;;;5069884;28;20932;-66
2021/03/09 11:23:20;;;;;;;16.37;14.67;;;9.10;25.50;;;;;;5070555;28;20171;-66
2021/03/09 11:25:46;;;;;;;15.03;13.57;;;9.30;25.90;;;;;;5069981;28;20203;-66
2021/03/09 11:28:11;;;;;;;16.27;13.63;;;9.50;25.60;;;;;;5070442;28;20301;-65
2021/03/09 11:30:37;;;;;;;17.40;15.20;;;9.40;25.00;;;;;;5070138;28;20698;-65
2021/03/09 11:33:03;;;;;;;15.73;13.70;;;9.50;25.30;;;;;;5069121;28;20657;-65
2021/03/09 11:35:28;;;;;;;12.77;11.57;;;9.60;24.30;;;;;;5070275;28;20172;-64
2021/03/09 11:37:54;;;;;;;14.20;12.60;;;9.70;23.40;;;;;;5070071;28;20225;-64
2021/03/09 11:40:21;;;;;;;15.97;13.67;;;9.50;23.40;;;;;;5070070;28;20171;-65
2021/03/09 11:42:47;;;;;;;15.90;13.50;;;9.80;24.90;;;;;;5070311;28;20168;-64
2021/03/09 11:45:12;;;;;;;13.60;12.20;;;9.70;24.30;;;;;;5068867;28;20464;-65
2021/03/09 11:47:38;;;;;;;13.27;11.87;;;9.80;23.80;;;;;;5069770;28;20170;-65
2021/03/09 11:50:05;;;;;;;13.50;12.07;;;9.70;23.80;;;;;;5070359;28;20167;-65
2021/03/09 11:52:31;;;;;;;12.93;11.73;;;9.90;23.00;;;;;;5063328;28;20480;-65
2021/03/09 11:54:58;;;;;;;12.97;11.87;;;9.90;23.50;;;;;;5050043;28;20417;-65
2021/03/09 11:57:24;;;;;;;49.53;35.63;;;9.90;22.00;;;;;;5049919;28;20418;-66
2021/03/09 11:59:49;;;;;;;12.87;11.70;;;9.80;21.90;;;;;;5057403;28;20417;-65
2021/03/09 12:02:15;;;;;;;11.60;9.77;;;9.90;22.00;;;;;;5067275;28;20202;-68
2021/03/09 12:04:41;;;;;;;11.60;10.30;;;10.10;39.20;;;;;;5060478;28;20216;-69
2021/03/09 12:07:07;;;;;;;11.57;10.27;;;10.50;27.70;;;;;;5069335;28;20175;-69
2021/03/09 12:09:32;;;;;;;17.50;14.07;;;11.20;33.20;;;;;;5069030;28;20409;-70
2021/03/09 12:11:58;;;;;;;15.30;13.90;;;10.90;24.00;;;;;;5048889;28;20423;-69
2021/03/09 12:14:23;;;;;;;13.70;12.17;;;10.30;21.90;;;;;;5049821;28;20818;-67
2021/03/09 12:16:49;;;;;;;12.97;11.77;;;10.40;21.90;;;;;;5049810;28;20233;-67
2021/03/09 12:19:14;;;;;;;13.53;12.33;;;10.20;21.30;;;;;;5049740;28;20508;-68
2021/03/09 12:21:40;;;;;;;14.53;13.17;;;10.20;22.60;;;;;;5049700;28;20210;-69
2021/03/09 12:24:06;;;;;;;12.77;11.57;;;10.30;23.40;;;;;;5049346;28;20199;-68
2021/03/09 12:26:33;;;;;;;11.70;10.50;;;10.30;22.20;;;;;;5049570;28;20171;-72
2021/03/09 12:28:59;;;;;;;12.87;11.57;;;10.30;20.90;;;;;;5049472;28;20399;-66
2021/03/09 12:31:24;;;;;;;15.57;12.27;;;10.40;20.00;;;;;;5049651;28;20429;-66
2021/03/09 12:33:50;;;;;;;11.90;10.90;;;10.10;20.80;;;;;;5051597;28;20414;-65
2021/03/09 12:36:16;;;;;;;12.13;10.87;;;10.10;20.40;;;;;;5053524;28;20572;-65
2021/03/09 12:38:41;;;;;;;13.53;12.13;;;10.10;20.30;;;;;;5053893;28;20248;-69
2021/03/09 12:41:07;;;;;;;16.07;12.20;;;10.20;20.60;;;;;;5072914;28;20242;-68
2021/03/09 12:43:32;;;;;;;11.90;10.80;;;10.00;21.40;;;;;;5070738;28;20179;-67
2021/03/09 12:45:58;;;;;;;13.87;11.37;;;10.10;21.70;;;;;;5069299;28;20207;-69
2021/03/09 12:48:24;;;;;;;13.27;12.00;;;10.30;21.70;;;;;;5072309;28;20247;-68
2021/03/09 12:50:49;;;;;;;11.97;10.80;;;10.40;21.10;;;;;;5073239;28;20184;-69
2021/03/09 12:53:15;;;;;;;11.77;10.60;;;10.40;20.40;;;;;;5072901;28;20183;-67